sensor_id;sensor_type;location;lat;lon;timestamp;P1;durP1;ratioP1;P2;durP2;ratioP2
50649;SDS011;36621;60.058;30.346;2023-04-27T00:02:34;10.13;;;6.00;;
50649;SDS011;36621;60.058;30.346;2023-04-27T00:10:08;10.13;;;6.38;;
50649;SDS011;36621;60.058;30.346;2023-04-27T00:17:41;12.55;;;5.93;;
50649;SDS011;36621;60.058;30.346;2023-04-27T00:25:14;15.05;;;6.18;;
50649;SDS011;36621;60.058;30.346;2023-04-27T00:32:46;14.82;;;6.13;;
50649;SDS011;36621;60.058;30.346;2023-04-27T00:40:21;9.48;;;5.30;;
50649;SDS011;36621;60.058;30.346;2023-04-27T00:47:53;14.82;;;6.18;;
50649;SDS011;36621;60.058;30.346;2023-04-27T00:55:26;16.95;;;6.25;;
50649;SDS011;36621;60.058;30.346;2023-04-27T01:02:59;17.08;;;7.35;;
50649;SDS011;36621;60.058;30.346;2023-04-27T01:10:32;50.08;;;25.23;;
50649;SDS011;36621;60.058;30.346;2023-04-27T01:18:04;29.27;;;8.00;;
50649;SDS011;36621;60.058;30.346;2023-04-27T01:25:37;38.70;;;8.43;;
50649;SDS011;36621;60.058;30.346;2023-04-27T01:33:09;39.08;;;10.38;;
50649;SDS011;36621;60.058;30.346;2023-04-27T01:40:42;14.02;;;6.55;;
50649;SDS011;36621;60.058;30.346;2023-04-27T01:48:14;11.65;;;6.70;;
50649;SDS011;36621;60.058;30.346;2023-04-27T01:55:49;13.18;;;7.28;;
50649;SDS011;36621;60.058;30.346;2023-04-27T02:03:21;10.50;;;6.88;;
50649;SDS011;36621;60.058;30.346;2023-04-27T02:10:55;20.10;;;8.52;;
50649;SDS011;36621;60.058;30.346;2023-04-27T02:18:27;24.55;;;10.27;;
50649;SDS011;36621;60.058;30.346;2023-04-27T02:26:00;23.42;;;9.10;;
50649;SDS011;36621;60.058;30.346;2023-04-27T02:33:32;21.85;;;8.95;;
50649;SDS011;36621;60.058;30.346;2023-04-27T02:41:05;14.30;;;7.22;;
50649;SDS011;36621;60.058;30.346;2023-04-27T02:48:38;14.25;;;6.65;;
50649;SDS011;36621;60.058;30.346;2023-04-27T02:56:11;10.95;;;6.22;;
50649;SDS011;36621;60.058;30.346;2023-04-27T03:03:43;13.90;;;7.10;;
50649;SDS011;36621;60.058;30.346;2023-04-27T03:11:18;9.68;;;5.85;;
50649;SDS011;36621;60.058;30.346;2023-04-27T03:18:50;12.65;;;5.28;;
50649;SDS011;36621;60.058;30.346;2023-04-27T03:26:22;17.35;;;5.45;;
50649;SDS011;36621;60.058;30.346;2023-04-27T03:33:54;10.68;;;4.97;;
50649;SDS011;36621;60.058;30.346;2023-04-27T03:41:27;10.15;;;5.53;;
50649;SDS011;36621;60.058;30.346;2023-04-27T03:48:59;13.80;;;5.93;;
50649;SDS011;36621;60.058;30.346;2023-04-27T03:56:32;15.27;;;5.30;;
50649;SDS011;36621;60.058;30.346;2023-04-27T04:04:05;8.68;;;5.47;;
50649;SDS011;36621;60.058;30.346;2023-04-27T04:11:38;11.05;;;5.82;;
50649;SDS011;36621;60.058;30.346;2023-04-27T04:19:13;17.70;;;6.78;;
50649;SDS011;36621;60.058;30.346;2023-04-27T04:26:46;14.73;;;6.75;;
50649;SDS011;36621;60.058;30.346;2023-04-27T04:34:19;13.02;;;6.60;;
50649;SDS011;36621;60.058;30.346;2023-04-27T04:41:52;18.50;;;6.85;;
50649;SDS011;36621;60.058;30.346;2023-04-27T04:49:25;14.95;;;7.70;;
50649;SDS011;36621;60.058;30.346;2023-04-27T04:56:58;18.63;;;8.18;;
50649;SDS011;36621;60.058;30.346;2023-04-27T05:04:31;15.00;;;7.60;;
50649;SDS011;36621;60.058;30.346;2023-04-27T05:12:04;14.45;;;6.90;;
50649;SDS011;36621;60.058;30.346;2023-04-27T05:19:36;14.10;;;8.07;;
50649;SDS011;36621;60.058;30.346;2023-04-27T05:27:11;16.90;;;8.95;;
50649;SDS011;36621;60.058;30.346;2023-04-27T05:34:43;16.85;;;8.57;;
50649;SDS011;36621;60.058;30.346;2023-04-27T05:42:17;13.20;;;7.00;;
50649;SDS011;36621;60.058;30.346;2023-04-27T05:49:50;11.68;;;7.13;;
50649;SDS011;36621;60.058;30.346;2023-04-27T17:23:53;3.03;;;1.33;;
50649;SDS011;36621;60.058;30.346;2023-04-27T17:31:25;3.83;;;2.58;;
50649;SDS011;36621;60.058;30.346;2023-04-27T17:38:58;2.10;;;1.40;;
50649;SDS011;36621;60.058;30.346;2023-04-27T17:46:31;3.33;;;1.35;;
50649;SDS011;36621;60.058;30.346;2023-04-27T17:54:04;2.20;;;1.60;;
50649;SDS011;36621;60.058;30.346;2023-04-27T18:01:36;2.90;;;1.83;;
50649;SDS011;36621;60.058;30.346;2023-04-27T18:09:09;2.35;;;1.27;;
50649;SDS011;36621;60.058;30.346;2023-04-27T18:16:41;2.95;;;1.40;;
50649;SDS011;36621;60.058;30.346;2023-04-27T18:24:13;1.95;;;1.33;;
50649;SDS011;36621;60.058;30.346;2023-04-27T18:31:46;2.20;;;1.60;;
50649;SDS011;36621;60.058;30.346;2023-04-27T18:39:20;2.55;;;1.00;;
50649;SDS011;36621;60.058;30.346;2023-04-27T18:46:58;2.97;;;1.73;;
50649;SDS011;36621;60.058;30.346;2023-04-27T18:54:31;4.70;;;1.20;;
50649;SDS011;36621;60.058;30.346;2023-04-27T19:02:04;1.65;;;1.13;;
50649;SDS011;36621;60.058;30.346;2023-04-27T19:09:38;3.95;;;2.50;;
50649;SDS011;36621;60.058;30.346;2023-04-27T19:17:11;4.95;;;2.88;;
50649;SDS011;36621;60.058;30.346;2023-04-27T19:24:44;3.35;;;1.88;;
50649;SDS011;36621;60.058;30.346;2023-04-27T19:32:16;3.15;;;2.40;;
50649;SDS011;36621;60.058;30.346;2023-04-27T19:39:48;8.07;;;1.85;;
50649;SDS011;36621;60.058;30.346;2023-04-27T19:47:21;2.33;;;1.55;;
50649;SDS011;36621;60.058;30.346;2023-04-27T19:54:54;3.67;;;1.50;;
50649;SDS011;36621;60.058;30.346;2023-04-27T20:02:26;2.50;;;1.35;;
50649;SDS011;36621;60.058;30.346;2023-04-27T20:09:59;1.70;;;1.50;;
50649;SDS011;36621;60.058;30.346;2023-04-27T20:17:34;2.28;;;1.30;;
50649;SDS011;36621;60.058;30.346;2023-04-27T20:25:08;1.63;;;1.25;;
50649;SDS011;36621;60.058;30.346;2023-04-27T20:32:40;2.65;;;1.60;;
50649;SDS011;36621;60.058;30.346;2023-04-27T20:40:13;1.73;;;1.60;;
50649;SDS011;36621;60.058;30.346;2023-04-27T20:47:47;2.38;;;1.55;;
50649;SDS011;36621;60.058;30.346;2023-04-27T20:55:20;2.42;;;1.20;;
50649;SDS011;36621;60.058;30.346;2023-04-27T21:02:52;1.10;;;0.95;;
50649;SDS011;36621;60.058;30.346;2023-04-27T21:10:24;1.63;;;1.40;;
50649;SDS011;36621;60.058;30.346;2023-04-27T21:17:57;2.80;;;2.25;;
50649;SDS011;36621;60.058;30.346;2023-04-27T21:25:29;2.13;;;1.30;;
50649;SDS011;36621;60.058;30.346;2023-04-27T21:33:01;1.58;;;1.20;;
50649;SDS011;36621;60.058;30.346;2023-04-27T21:40:34;1.30;;;1.20;;
50649;SDS011;36621;60.058;30.346;2023-04-27T21:48:06;1.48;;;1.30;;
50649;SDS011;36621;60.058;30.346;2023-04-27T21:55:38;3.53;;;1.50;;
50649;SDS011;36621;60.058;30.346;2023-04-27T22:03:10;1.70;;;1.30;;
50649;SDS011;36621;60.058;30.346;2023-04-27T22:10:43;2.30;;;1.50;;
50649;SDS011;36621;60.058;30.346;2023-04-27T22:18:16;2.25;;;1.48;;
50649;SDS011;36621;60.058;30.346;2023-04-27T22:25:49;2.15;;;1.60;;
50649;SDS011;36621;60.058;30.346;2023-04-27T22:33:21;1.85;;;1.10;;
50649;SDS011;36621;60.058;30.346;2023-04-27T22:40:53;1.13;;;1.00;;
50649;SDS011;36621;60.058;30.346;2023-04-27T22:48:26;1.92;;;1.30;;
50649;SDS011;36621;60.058;30.346;2023-04-27T22:55:58;1.73;;;1.30;;
50649;SDS011;36621;60.058;30.346;2023-04-27T23:03:30;2.10;;;1.50;;
50649;SDS011;36621;60.058;30.346;2023-04-27T23:11:03;1.58;;;1.08;;
50649;SDS011;36621;60.058;30.346;2023-04-27T23:18:35;1.10;;;1.00;;
50649;SDS011;36621;60.058;30.346;2023-04-27T23:26:11;2.28;;;2.08;;
50649;SDS011;36621;60.058;30.346;2023-04-27T23:33:44;6.95;;;6.32;;
50649;SDS011;36621;60.058;30.346;2023-04-27T23:41:17;4.25;;;3.35;;
50649;SDS011;36621;60.058;30.346;2023-04-27T23:48:49;2.20;;;1.60;;
50649;SDS011;36621;60.058;30.346;2023-04-27T23:56:21;1.15;;;1.05;;
